Time;durP1;ratioP1;P1;durP2;ratioP2;P2;SDS_P1;SDS_P2;PMS_P1;PMS_P2;Temp;Humidity;BMP_temperature;BMP_pressure;BME280_temperature;BME280_humidity;BME280_pressure;Samples;Min_cycle;Max_cycle;Signal;HPM_P1;HPM_P2
2019/05/16 00:01:45;;;;;;;1.30;1.20;;;;;;;19.02;40.89;100865.93;;;;-50
2019/05/16 00:04:45;;;;;;;1.36;1.20;;;;;;;19.01;40.90;100863.77;;;;-50
2019/05/16 00:07:45;;;;;;;1.85;1.28;;;;;;;18.99;40.92;100859.92;;;;-50
2019/05/16 00:10:45;;;;;;;1.27;1.17;;;;;;;18.99;40.89;100854.96;;;;-50
2019/05/16 00:13:45;;;;;;;1.30;1.20;;;;;;;19.00;40.89;100851.66;;;;-50
2019/05/16 00:16:45;;;;;;;1.19;1.10;;;;;;;18.98;40.92;100848.16;;;;-50
2019/05/16 00:19:45;;;;;;;1.38;1.28;;;;;;;18.98;40.92;100841.69;;;;-50
2019/05/16 00:22:45;;;;;;;1.30;1.20;;;;;;;18.97;40.95;100839.72;;;;-50
2019/05/16 00:25:45;;;;;;;1.30;1.20;;;;;;;18.98;40.91;100838.66;;;;-50
2019/05/16 00:28:45;;;;;;;1.22;1.20;;;;;;;18.96;40.92;100836.16;;;;-50
2019/05/16 00:31:44;;;;;;;1.30;1.20;;;;;;;18.96;40.98;100835.21;;;;-50
2019/05/16 00:34:44;;;;;;;1.19;1.17;;;;;;;18.96;40.92;100833.98;;;;-50
2019/05/16 00:37:45;;;;;;;1.25;1.17;;;;;;;18.95;40.96;100828.91;;;;-50
2019/05/16 00:40:45;;;;;;;1.27;1.17;;;;;;;18.94;40.98;100827.19;;;;-50
2019/05/16 00:43:45;;;;;;;1.32;1.18;;;;;;;18.94;40.97;100823.89;;;;-50
2019/05/16 00:46:45;;;;;;;1.27;1.17;;;;;;;18.94;40.94;100821.89;;;;-50
2019/05/16 00:49:45;;;;;;;1.30;1.20;;;;;;;18.93;40.96;100816.69;;;;-50
2019/05/16 00:52:44;;;;;;;1.26;1.16;;;;;;;18.93;40.98;100816.81;;;;-50
2019/05/16 00:55:45;;;;;;;1.21;1.18;;;;;;;18.91;41.00;100811.97;;;;-50
2019/05/16 00:58:45;;;;;;;1.29;1.19;;;;;;;18.91;40.99;100806.83;;;;-50
2019/05/16 01:01:45;;;;;;;1.30;1.20;;;;;;;18.91;41.01;100804.70;;;;-50
2019/05/16 01:04:45;;;;;;;1.35;1.20;;;;;;;18.92;40.96;100804.04;;;;-50
2019/05/16 01:07:45;;;;;;;1.23;1.13;;;;;;;18.91;40.98;100804.70;;;;-50
2019/05/16 01:10:45;;;;;;;1.19;1.09;;;;;;;18.90;40.97;100805.89;;;;-50
2019/05/16 01:13:45;;;;;;;1.30;1.20;;;;;;;18.91;40.96;100806.83;;;;-50
2019/05/16 01:16:44;;;;;;;1.34;1.14;;;;;;;18.90;40.99;100803.20;;;;-50
2019/05/16 01:19:45;;;;;;;1.21;1.19;;;;;;;18.89;40.99;100800.98;;;;-50
2019/05/16 01:22:45;;;;;;;1.37;1.27;;;;;;;18.88;41.02;100798.59;;;;-50
2019/05/16 01:25:45;;;;;;;1.24;1.17;;;;;;;18.89;41.01;100798.86;;;;-50
2019/05/16 01:28:45;;;;;;;1.29;1.20;;;;;;;18.88;41.04;100795.63;;;;-50
2019/05/16 01:31:45;;;;;;;1.29;1.19;;;;;;;18.89;40.98;100791.33;;;;-50
2019/05/16 01:34:45;;;;;;;1.16;1.14;;;;;;;18.87;41.02;100789.03;;;;-50
2019/05/16 01:37:45;;;;;;;1.35;1.19;;;;;;;18.87;41.01;100790.33;;;;-50
2019/05/16 01:40:45;;;;;;;1.19;1.14;;;;;;;18.87;41.00;100786.48;;;;-50
2019/05/16 01:43:45;;;;;;;1.20;1.10;;;;;;;18.86;40.99;100786.53;;;;-50
2019/05/16 01:46:45;;;;;;;1.28;1.20;;;;;;;18.87;41.04;100787.38;;;;-50
2019/05/16 01:49:45;;;;;;;1.25;1.15;;;;;;;18.86;41.01;100780.80;;;;-50
2019/05/16 01:52:45;;;;;;;1.10;1.10;;;;;;;18.86;41.02;100776.39;;;;-50
2019/05/16 01:55:45;;;;;;;1.33;1.23;;;;;;;18.85;40.99;100776.21;;;;-50
2019/05/16 01:58:45;;;;;;;1.25;1.20;;;;;;;18.85;41.01;100774.66;;;;-50
2019/05/16 02:01:45;;;;;;;1.23;1.20;;;;;;;18.84;41.03;100774.66;;;;-50
2019/05/16 02:04:44;;;;;;;1.10;1.10;;;;;;;18.86;41.03;100768.58;;;;-50
2019/05/16 02:07:45;;;;;;;1.10;1.10;;;;;;;18.84;41.04;100762.79;;;;-50
2019/05/16 02:10:45;;;;;;;1.32;1.20;;;;;;;18.83;41.06;100763.22;;;;-50
2019/05/16 02:13:45;;;;;;;1.07;1.07;;;;;;;18.82;41.00;100762.23;;;;-50
2019/05/16 02:16:45;;;;;;;1.30;1.20;;;;;;;18.83;41.02;100757.43;;;;-50
2019/05/16 02:19:45;;;;;;;1.14;1.14;;;;;;;18.83;40.99;100755.21;;;;-50
2019/05/16 02:22:45;;;;;;;1.15;1.10;;;;;;;18.82;41.04;100746.63;;;;-50
2019/05/16 02:25:44;;;;;;;1.27;1.17;;;;;;;18.82;41.02;100743.61;;;;-50
2019/05/16 02:28:45;;;;;;;1.30;1.20;;;;;;;18.82;41.04;100739.53;;;;-50
2019/05/16 02:31:45;;;;;;;1.13;1.10;;;;;;;18.81;41.00;100733.23;;;;-50
2019/05/16 02:34:45;;;;;;;1.25;1.20;;;;;;;18.81;41.05;100727.50;;;;-50
2019/05/16 02:37:45;;;;;;;1.22;1.19;;;;;;;18.80;41.07;100726.76;;;;-50
2019/05/16 02:40:45;;;;;;;1.16;1.16;;;;;;;18.80;41.06;100726.09;;;;-50
2019/05/16 02:43:45;;;;;;;1.31;1.21;;;;;;;18.80;41.05;100717.61;;;;-50
2019/05/16 02:46:44;;;;;;;1.27;1.17;;;;;;;18.80;41.07;100716.60;;;;-50
2019/05/16 02:49:45;;;;;;;1.39;1.20;;;;;;;18.79;41.04;100715.89;;;;-50
2019/05/16 02:52:45;;;;;;;1.30;1.20;;;;;;;18.79;41.05;100715.83;;;;-50
2019/05/16 02:55:45;;;;;;;1.13;1.10;;;;;;;18.78;41.06;100708.64;;;;-50
2019/05/16 02:58:45;;;;;;;1.25;1.15;;;;;;;18.79;41.05;100713.98;;;;-50
2019/05/16 03:01:45;;;;;;;1.22;1.18;;;;;;;18.77;41.07;100706.15;;;;-50
2019/05/16 03:04:45;;;;;;;1.22;1.15;;;;;;;18.77;41.05;100705.64;;;;-50
2019/05/16 03:07:44;;;;;;;1.16;1.15;;;;;;;18.78;41.05;100708.37;;;;-50
2019/05/16 03:10:45;;;;;;;1.37;1.27;;;;;;;18.76;41.09;100708.20;;;;-50
2019/05/16 03:13:45;;;;;;;1.15;1.10;;;;;;;18.77;41.08;100702.39;;;;-50
2019/05/16 03:16:45;;;;;;;1.31;1.21;;;;;;;18.75;41.09;100693.70;;;;-50
2019/05/16 03:19:45;;;;;;;1.30;1.20;;;;;;;18.76;41.07;100692.55;;;;-50
2019/05/16 03:22:45;;;;;;;1.20;1.10;;;;;;;18.75;41.05;100689.08;;;;-50
2019/05/16 03:25:45;;;;;;;1.13;1.11;;;;;;;18.75;41.04;100691.03;;;;-50
2019/05/16 03:28:45;;;;;;;1.06;1.06;;;;;;;18.75;41.05;100686.90;;;;-50
2019/05/16 03:31:44;;;;;;;1.10;1.10;;;;;;;18.74;41.04;100686.86;;;;-50
2019/05/16 03:34:45;;;;;;;1.33;1.24;;;;;;;18.73;41.04;100687.98;;;;-50
2019/05/16 03:37:45;;;;;;;1.40;1.25;;;;;;;18.74;41.07;100681.83;;;;-50
2019/05/16 03:40:45;;;;;;;1.30;1.20;;;;;;;18.75;41.05;100681.49;;;;-50
2019/05/16 03:43:45;;;;;;;1.25;1.21;;;;;;;18.75;41.06;100678.64;;;;-50
2019/05/16 03:46:44;;;;;;;1.19;1.19;;;;;;;18.77;41.07;100678.47;;;;-50
2019/05/16 03:49:45;;;;;;;1.34;1.24;;;;;;;18.78;41.02;100677.09;;;;-49
2019/05/16 03:52:45;;;;;;;1.19;1.19;;;;;;;18.81;41.03;100673.89;;;;-49
2019/05/16 03:55:44;;;;;;;1.10;1.10;;;;;;;18.83;41.05;100674.87;;;;-49
2019/05/16 03:58:45;;;;;;;1.34;1.15;;;;;;;18.85;41.03;100672.19;;;;-49
2019/05/16 04:01:45;;;;;;;1.30;1.20;;;;;;;18.89;41.04;100671.17;;;;-49
2019/05/16 04:04:45;;;;;;;1.29;1.19;;;;;;;18.92;41.00;100667.25;;;;-49
2019/05/16 04:07:45;;;;;;;1.29;1.19;;;;;;;18.96;41.05;100665.77;;;;-49
2019/05/16 04:10:45;;;;;;;1.21;1.18;;;;;;;18.99;41.15;100663.81;;;;-49
2019/05/16 04:13:45;;;;;;;1.30;1.20;;;;;;;19.04;41.15;100664.97;;;;-49
2019/05/16 04:16:44;;;;;;;1.15;1.10;;;;;;;19.07;41.22;100663.14;;;;-49
2019/05/16 04:19:44;;;;;;;1.30;1.20;;;;;;;19.12;41.27;100658.76;;;;-49
2019/05/16 04:22:44;;;;;;;1.24;1.18;;;;;;;19.15;41.29;100659.45;;;;-49
2019/05/16 04:25:45;;;;;;;1.21;1.11;;;;;;;19.20;41.27;100661.77;;;;-49
2019/05/16 04:28:44;;;;;;;1.37;1.27;;;;;;;19.22;41.32;100658.80;;;;-50
2019/05/16 04:31:45;;;;;;;1.30;1.20;;;;;;;19.26;41.33;100662.73;;;;-49
2019/05/16 04:34:45;;;;;;;1.15;1.10;;;;;;;19.29;41.33;100659.19;;;;-50
2019/05/16 04:37:44;;;;;;;1.24;1.19;;;;;;;19.33;41.37;100662.90;;;;-49
2019/05/16 04:40:44;;;;;;;1.13;1.13;;;;;;;19.37;41.38;100661.99;;;;-50
2019/05/16 04:43:45;;;;;;;1.10;1.10;;;;;;;19.40;41.37;100662.24;;;;-49
2019/05/16 04:46:45;;;;;;;1.45;1.20;;;;;;;19.44;41.36;100661.42;;;;-49
2019/05/16 04:49:45;;;;;;;1.29;1.19;;;;;;;19.47;41.36;100660.47;;;;-57
2019/05/16 04:52:45;;;;;;;1.06;1.06;;;;;;;19.50;41.37;100652.67;;;;-57
2019/05/16 04:55:45;;;;;;;1.30;1.20;;;;;;;19.53;41.38;100651.36;;;;-50
2019/05/16 04:58:44;;;;;;;1.21;1.17;;;;;;;19.55;41.39;100652.97;;;;-50
2019/05/16 05:01:45;;;;;;;1.30;1.20;;;;;;;19.58;41.36;100653.11;;;;-50
2019/05/16 05:04:44;;;;;;;1.29;1.19;;;;;;;19.60;41.37;100650.36;;;;-50
2019/05/16 05:07:45;;;;;;;1.28;1.20;;;;;;;19.63;41.36;100651.84;;;;-50
2019/05/16 05:10:45;;;;;;;1.09;1.07;;;;;;;19.66;41.38;100651.03;;;;-57
2019/05/16 05:13:45;;;;;;;1.27;1.17;;;;;;;19.68;41.31;100652.64;;;;-57
2019/05/16 05:16:45;;;;;;;1.21;1.15;;;;;;;19.70;41.31;100655.81;;;;-57
2019/05/16 05:19:44;;;;;;;1.10;1.10;;;;;;;19.73;41.28;100652.33;;;;-57
2019/05/16 05:22:45;;;;;;;1.12;1.10;;;;;;;19.75;41.26;100648.11;;;;-57
2019/05/16 05:25:45;;;;;;;1.29;1.19;;;;;;;19.77;41.17;100640.66;;;;-59
2019/05/16 05:28:45;;;;;;;6.51;1.28;;;;;;;19.86;41.23;100641.75;;;;-58
2019/05/16 05:31:45;;;;;;;2.11;1.21;;;;;;;19.91;41.89;100640.36;;;;-57
2019/05/16 05:34:45;;;;;;;4.50;1.42;;;;;;;19.86;40.75;100645.34;;;;-54
2019/05/16 05:37:45;;;;;;;1.76;1.61;;;;;;;19.66;38.52;100644.78;;;;-54
2019/05/16 05:40:44;;;;;;;2.65;1.90;;;;;;;19.51;37.81;100642.40;;;;-55
2019/05/16 05:43:45;;;;;;;3.33;2.17;;;;;;;19.40;37.11;100647.11;;;;-54
2019/05/16 05:46:45;;;;;;;3.37;2.07;;;;;;;19.32;37.10;100650.37;;;;-57
2019/05/16 05:49:45;;;;;;;4.29;2.19;;;;;;;19.22;36.43;100645.30;;;;-57
2019/05/16 05:52:45;;;;;;;2.72;2.07;;;;;;;19.16;36.40;100641.72;;;;-58
2019/05/16 05:55:45;;;;;;;2.33;1.93;;;;;;;19.09;36.15;100640.98;;;;-53
2019/05/16 05:58:45;;;;;;;4.19;2.11;;;;;;;19.05;36.08;100640.45;;;;-57
2019/05/16 06:01:44;;;;;;;2.60;2.11;;;;;;;19.00;35.84;100640.27;;;;-58
2019/05/16 06:04:45;;;;;;;4.33;1.99;;;;;;;19.15;36.75;100641.50;;;;-57
2019/05/16 06:07:45;;;;;;;3.62;1.81;;;;;;;19.27;37.38;100645.48;;;;-55
2019/05/16 06:10:45;;;;;;;2.44;1.67;;;;;;;19.37;37.82;100643.17;;;;-55
2019/05/16 06:13:45;;;;;;;2.70;1.91;;;;;;;19.46;38.15;100639.65;;;;-58
2019/05/16 06:16:45;;;;;;;2.07;1.87;;;;;;;19.52;38.33;100641.27;;;;-54
2019/05/16 06:19:45;;;;;;;2.43;1.80;;;;;;;19.57;38.47;100634.70;;;;-56
2019/05/16 06:22:44;;;;;;;1.85;1.68;;;;;;;19.63;38.85;100640.67;;;;-55
2019/05/16 06:25:44;;;;;;;1.81;1.69;;;;;;;19.66;38.81;100639.81;;;;-54
2019/05/16 06:28:45;;;;;;;4.37;1.87;;;;;;;19.71;39.10;100630.29;;;;-56
2019/05/16 06:31:45;;;;;;;5.40;2.01;;;;;;;19.73;38.88;100629.42;;;;-57
2019/05/16 06:34:44;;;;;;;3.04;1.85;;;;;;;19.76;39.00;100627.61;;;;-56
2019/05/16 06:37:45;;;;;;;2.09;1.61;;;;;;;19.80;39.13;100626.95;;;;-56
2019/05/16 06:40:45;;;;;;;6.40;1.79;;;;;;;19.82;39.07;100625.71;;;;-58
2019/05/16 06:43:44;;;;;;;4.81;1.81;;;;;;;19.86;39.04;100620.86;;;;-56
2019/05/16 06:46:44;;;;;;;2.22;1.71;;;;;;;19.89;39.31;100619.83;;;;-54
2019/05/16 06:49:45;;;;;;;3.29;1.70;;;;;;;19.92;39.42;100618.08;;;;-59
2019/05/16 06:52:45;;;;;;;5.15;1.67;;;;;;;19.97;39.67;100622.50;;;;-57
2019/05/16 06:55:45;;;;;;;3.12;1.70;;;;;;;20.01;39.47;100617.01;;;;-54
2019/05/16 06:58:45;;;;;;;1.69;1.50;;;;;;;20.05;39.58;100620.20;;;;-51
2019/05/16 07:01:45;;;;;;;2.78;1.78;;;;;;;20.08;39.28;100611.23;;;;-57
2019/05/16 07:04:44;;;;;;;2.03;1.69;;;;;;;20.12;38.90;100605.09;;;;-51
2019/05/16 07:07:44;;;;;;;2.60;1.73;;;;;;;20.14;39.42;100599.48;;;;-51
2019/05/16 07:10:45;;;;;;;2.97;1.69;;;;;;;20.19;39.86;100596.52;;;;-51
2019/05/16 07:13:44;;;;;;;3.31;1.53;;;;;;;20.20;39.28;100597.97;;;;-50
2019/05/16 07:16:44;;;;;;;1.86;1.68;;;;;;;20.22;39.05;100600.84;;;;-50
2019/05/16 07:19:45;;;;;;;4.41;1.83;;;;;;;20.24;39.14;100594.05;;;;-57
2019/05/16 07:22:45;;;;;;;1.99;1.59;;;;;;;20.27;39.18;100590.22;;;;-54
2019/05/16 07:25:45;;;;;;;2.20;1.60;;;;;;;20.30;39.63;100585.55;;;;-51
2019/05/16 07:28:44;;;;;;;2.25;1.62;;;;;;;20.32;39.29;100580.98;;;;-51
2019/05/16 07:31:45;;;;;;;2.20;1.73;;;;;;;20.35;39.40;100579.16;;;;-51
2019/05/16 07:34:45;;;;;;;2.36;1.63;;;;;;;20.36;39.57;100573.17;;;;-51
2019/05/16 07:37:45;;;;;;;2.27;1.63;;;;;;;20.40;39.54;100574.84;;;;-52
2019/05/16 07:40:45;;;;;;;1.70;1.60;;;;;;;20.42;39.65;100568.45;;;;-51
2019/05/16 07:43:44;;;;;;;3.13;1.65;;;;;;;20.44;39.91;100569.38;;;;-51
2019/05/16 07:46:44;;;;;;;3.23;1.68;;;;;;;20.47;39.21;100570.62;;;;-52
2019/05/16 07:49:44;;;;;;;2.01;1.57;;;;;;;20.46;39.29;100570.23;;;;-51
2019/05/16 07:52:44;;;;;;;1.97;1.47;;;;;;;20.44;39.12;100563.72;;;;-58
2019/05/16 07:55:45;;;;;;;1.92;1.50;;;;;;;20.43;39.16;100564.01;;;;-58
2019/05/16 07:58:45;;;;;;;2.93;1.55;;;;;;;20.43;39.27;100559.05;;;;-57
2019/05/16 08:01:45;;;;;;;1.60;1.50;;;;;;;20.42;39.20;100553.91;;;;-57
2019/05/16 08:04:45;;;;;;;1.65;1.50;;;;;;;20.42;39.25;100556.15;;;;-57
2019/05/16 08:07:44;;;;;;;1.93;1.51;;;;;;;20.42;39.28;100556.92;;;;-58
2019/05/16 08:10:45;;;;;;;2.15;1.59;;;;;;;20.41;39.30;100549.50;;;;-58
2019/05/16 08:13:45;;;;;;;2.51;1.47;;;;;;;20.41;39.32;100547.05;;;;-58
2019/05/16 08:16:45;;;;;;;2.59;1.50;;;;;;;20.40;39.34;100542.31;;;;-57
2019/05/16 08:19:45;;;;;;;2.46;1.72;;;;;;;20.40;39.34;100545.23;;;;-57
2019/05/16 08:22:45;;;;;;;1.82;1.47;;;;;;;20.40;39.47;100542.81;;;;-57
2019/05/16 08:25:44;;;;;;;1.66;1.56;;;;;;;20.39;39.43;100534.66;;;;-57
2019/05/16 08:28:44;;;;;;;1.59;1.45;;;;;;;20.39;39.41;100531.86;;;;-57
2019/05/16 08:31:44;;;;;;;2.59;1.53;;;;;;;20.38;39.40;100531.66;;;;-58
2019/05/16 08:34:44;;;;;;;1.90;1.41;;;;;;;20.37;39.45;100529.77;;;;-57
2019/05/16 08:37:45;;;;;;;2.33;1.50;;;;;;;20.35;39.45;100521.91;;;;-57
2019/05/16 08:40:44;;;;;;;1.76;1.58;;;;;;;20.35;39.44;100520.06;;;;-58
2019/05/16 08:43:45;;;;;;;1.57;1.47;;;;;;;20.35;39.47;100516.09;;;;-57
2019/05/16 08:46:44;;;;;;;1.57;1.47;;;;;;;20.34;39.55;100515.05;;;;-57
2019/05/16 08:49:45;;;;;;;1.63;1.51;;;;;;;20.33;39.49;100509.91;;;;-58
2019/05/16 08:52:44;;;;;;;1.79;1.41;;;;;;;20.33;39.48;100504.17;;;;-57
2019/05/16 08:55:44;;;;;;;1.81;1.55;;;;;;;20.32;39.52;100500.61;;;;-58
2019/05/16 08:58:45;;;;;;;2.04;1.50;;;;;;;20.31;39.52;100497.31;;;;-57
2019/05/16 09:01:45;;;;;;;1.51;1.41;;;;;;;20.30;39.51;100498.72;;;;-57
2019/05/16 09:04:45;;;;;;;4.29;1.60;;;;;;;20.30;39.65;100492.07;;;;-52
2019/05/16 09:07:44;;;;;;;3.63;1.57;;;;;;;20.29;39.74;100492.30;;;;-55
2019/05/16 09:10:44;;;;;;;2.87;1.55;;;;;;;20.28;39.66;100489.01;;;;-50
2019/05/16 09:13:44;;;;;;;2.37;1.54;;;;;;;20.27;39.76;100484.61;;;;-51
2019/05/16 09:16:44;;;;;;;2.10;1.53;;;;;;;20.26;39.71;100479.43;;;;-51
2019/05/16 09:19:45;;;;;;;2.91;1.49;;;;;;;20.26;39.68;100477.05;;;;-52
2019/05/16 09:22:44;;;;;;;2.26;1.58;;;;;;;20.26;39.63;100472.52;;;;-53
2019/05/16 09:25:44;;;;;;;2.43;1.41;;;;;;;20.24;39.61;100468.61;;;;-51
2019/05/16 09:28:44;;;;;;;1.83;1.47;;;;;;;20.24;39.53;100466.70;;;;-56
2019/05/16 09:31:44;;;;;;;2.09;1.49;;;;;;;20.24;39.52;100466.43;;;;-51
2019/05/16 09:34:44;;;;;;;4.73;1.50;;;;;;;20.24;39.64;100464.38;;;;-57
2019/05/16 09:37:45;;;;;;;6.05;1.75;;;;;;;20.23;39.15;100464.05;;;;-51
2019/05/16 09:40:44;;;;;;;3.52;1.55;;;;;;;20.23;39.55;100458.07;;;;-50
2019/05/16 09:43:44;;;;;;;2.89;1.50;;;;;;;20.24;39.69;100450.33;;;;-51
2019/05/16 09:46:45;;;;;;;5.86;1.64;;;;;;;20.22;39.61;100449.18;;;;-51
2019/05/16 09:49:44;;;;;;;6.33;1.70;;;;;;;20.21;39.61;100448.70;;;;-53
2019/05/16 09:52:44;;;;;;;3.19;1.69;;;;;;;20.18;39.21;100441.70;;;;-54
2019/05/16 09:55:44;;;;;;;3.28;1.66;;;;;;;20.17;39.28;100435.95;;;;-55
2019/05/16 09:58:44;;;;;;;6.19;1.83;;;;;;;20.16;39.20;100429.38;;;;-52
2019/05/16 10:01:45;;;;;;;6.83;1.59;;;;;;;20.13;38.79;100429.86;;;;-50
2019/05/16 10:04:44;;;;;;;7.18;2.03;;;;;;;20.13;38.70;100430.59;;;;-51
2019/05/16 10:07:45;;;;;;;2.13;1.59;;;;;;;20.14;38.70;100432.98;;;;-52
2019/05/16 10:10:44;;;;;;;3.06;1.60;;;;;;;20.12;38.72;100428.81;;;;-51
2019/05/16 10:13:44;;;;;;;1.83;1.60;;;;;;;20.13;38.67;100425.83;;;;-52
2019/05/16 10:16:44;;;;;;;2.83;1.60;;;;;;;20.13;38.83;100420.70;;;;-52
2019/05/16 10:19:44;;;;;;;1.82;1.46;;;;;;;20.12;38.75;100417.81;;;;-51
2019/05/16 10:22:45;;;;;;;3.27;1.60;;;;;;;20.12;38.81;100409.70;;;;-51
2019/05/16 10:25:44;;;;;;;1.69;1.58;;;;;;;20.11;38.78;100408.38;;;;-52
2019/05/16 10:28:45;;;;;;;2.13;1.64;;;;;;;20.09;38.82;100406.45;;;;-52
2019/05/16 10:31:44;;;;;;;2.81;1.60;;;;;;;20.09;38.91;100404.21;;;;-52
2019/05/16 10:34:45;;;;;;;2.85;1.61;;;;;;;20.08;39.10;100401.22;;;;-52
2019/05/16 10:37:44;;;;;;;1.85;1.59;;;;;;;20.05;39.25;100396.67;;;;-52
2019/05/16 10:40:44;;;;;;;3.42;1.45;;;;;;;20.04;39.27;100389.59;;;;-52
2019/05/16 10:43:44;;;;;;;1.75;1.43;;;;;;;20.02;39.33;100381.05;;;;-52
2019/05/16 10:46:45;;;;;;;3.24;1.57;;;;;;;20.01;39.43;100375.78;;;;-53
2019/05/16 10:49:45;;;;;;;2.25;1.63;;;;;;;19.99;39.42;100372.52;;;;-52
2019/05/16 10:52:44;;;;;;;2.69;1.60;;;;;;;19.97;39.41;100364.05;;;;-52
2019/05/16 10:55:44;;;;;;;2.35;1.51;;;;;;;19.96;39.46;100361.06;;;;-52
2019/05/16 10:58:44;;;;;;;2.77;1.68;;;;;;;19.95;39.44;100362.20;;;;-52
2019/05/16 11:01:44;;;;;;;2.45;1.61;;;;;;;19.94;39.54;100360.69;;;;-52
2019/05/16 11:04:44;;;;;;;2.56;1.52;;;;;;;19.93;39.52;100358.97;;;;-53
2019/05/16 11:07:45;;;;;;;1.63;1.44;;;;;;;19.92;39.56;100352.78;;;;-52
2019/05/16 11:10:44;;;;;;;2.61;1.66;;;;;;;19.91;39.57;100351.47;;;;-52
2019/05/16 11:13:44;;;;;;;2.01;1.50;;;;;;;19.90;39.69;100356.29;;;;-52
2019/05/16 11:16:44;;;;;;;1.51;1.41;;;;;;;19.89;39.63;100352.09;;;;-52
2019/05/16 11:19:44;;;;;;;3.13;1.60;;;;;;;19.88;39.63;100345.98;;;;-52
2019/05/16 11:22:44;;;;;;;2.14;1.57;;;;;;;19.87;39.66;100343.36;;;;-52
2019/05/16 11:25:44;;;;;;;2.51;1.51;;;;;;;19.86;39.74;100340.13;;;;-52
2019/05/16 11:28:45;;;;;;;2.19;1.50;;;;;;;19.85;39.64;100342.55;;;;-52
2019/05/16 11:31:44;;;;;;;1.74;1.42;;;;;;;19.84;39.66;100337.38;;;;-52
2019/05/16 11:34:44;;;;;;;1.52;1.41;;;;;;;19.83;39.73;100334.31;;;;-52
2019/05/16 11:37:44;;;;;;;1.50;1.40;;;;;;;19.81;39.68;100337.36;;;;-52
2019/05/16 11:40:44;;;;;;;1.79;1.43;;;;;;;19.80;39.76;100328.43;;;;-52
2019/05/16 11:43:44;;;;;;;1.48;1.31;;;;;;;19.80;39.71;100328.66;;;;-52
2019/05/16 11:46:44;;;;;;;2.83;1.59;;;;;;;19.79;39.77;100329.23;;;;-53
2019/05/16 11:49:45;;;;;;;1.95;1.48;;;;;;;19.77;39.82;100322.78;;;;-53
2019/05/16 11:52:44;;;;;;;2.08;1.51;;;;;;;19.78;39.79;100321.71;;;;-52
2019/05/16 11:55:44;;;;;;;2.25;1.45;;;;;;;19.78;39.80;100320.88;;;;-52
2019/05/16 11:58:44;;;;;;;1.52;1.42;;;;;;;19.80;39.76;100319.72;;;;-53
2019/05/16 12:01:44;;;;;;;1.69;1.50;;;;;;;19.80;39.73;100316.37;;;;-52
2019/05/16 12:04:44;;;;;;;2.55;1.60;;;;;;;19.81;39.84;100309.88;;;;-55
2019/05/16 12:07:45;;;;;;;2.51;1.48;;;;;;;19.84;39.99;100307.72;;;;-53
2019/05/16 12:10:44;;;;;;;4.51;1.52;;;;;;;19.85;40.21;100308.02;;;;-55
2019/05/16 12:13:44;;;;;;;2.16;1.43;;;;;;;19.87;40.30;100302.81;;;;-52
2019/05/16 12:16:44;;;;;;;3.63;1.59;;;;;;;19.88;40.62;100297.15;;;;-52
2019/05/16 12:19:44;;;;;;;3.29;1.50;;;;;;;19.88;40.84;100294.64;;;;-52
2019/05/16 12:22:44;;;;;;;3.26;1.69;;;;;;;19.90;40.76;100286.57;;;;-50
2019/05/16 12:25:45;;;;;;;5.54;1.75;;;;;;;19.90;41.16;100286.00;;;;-51
2019/05/16 12:28:45;;;;;;;5.35;1.62;;;;;;;19.91;41.02;100286.14;;;;-54
2019/05/16 12:31:44;;;;;;;5.51;1.59;;;;;;;19.90;41.25;100284.49;;;;-52
2019/05/16 12:34:44;;;;;;;5.12;1.64;;;;;;;19.89;41.13;100280.94;;;;-52
2019/05/16 12:37:44;;;;;;;5.67;1.70;;;;;;;19.91;41.07;100283.19;;;;-51
2019/05/16 12:40:44;;;;;;;6.66;1.86;;;;;;;19.91;41.17;100278.56;;;;-52
2019/05/16 12:43:44;;;;;;;4.45;1.75;;;;;;;19.91;41.14;100277.83;;;;-53
2019/05/16 12:46:44;;;;;;;6.47;1.72;;;;;;;19.91;41.09;100275.75;;;;-49
2019/05/16 12:49:45;;;;;;;2.97;1.66;;;;;;;19.92;41.24;100270.45;;;;-49
2019/05/16 12:52:44;;;;;;;2.87;1.48;;;;;;;19.91;41.22;100265.86;;;;-51
2019/05/16 12:55:44;;;;;;;3.37;1.60;;;;;;;19.91;41.27;100255.44;;;;-49
2019/05/16 12:58:44;;;;;;;2.81;1.61;;;;;;;19.92;41.22;100255.20;;;;-50
2019/05/16 13:01:44;;;;;;;3.57;1.70;;;;;;;19.93;41.19;100251.05;;;;-52
2019/05/16 13:04:44;;;;;;;4.65;1.61;;;;;;;19.94;41.19;100239.63;;;;-53
2019/05/16 13:07:44;;;;;;;3.10;1.53;;;;;;;19.95;41.25;100242.59;;;;-52
2019/05/16 13:10:45;;;;;;;2.83;1.51;;;;;;;19.94;41.15;100241.34;;;;-52
2019/05/16 13:13:45;;;;;;;2.84;1.58;;;;;;;19.94;41.19;100237.22;;;;-53
2019/05/16 13:16:44;;;;;;;3.93;1.52;;;;;;;19.94;41.21;100230.41;;;;-53
2019/05/16 13:19:44;;;;;;;3.01;1.65;;;;;;;19.95;41.30;100226.16;;;;-53
2019/05/16 13:22:44;;;;;;;5.60;1.70;;;;;;;19.94;41.29;100220.73;;;;-51
2019/05/16 13:25:44;;;;;;;2.13;1.47;;;;;;;19.95;41.37;100212.92;;;;-51
2019/05/16 13:28:44;;;;;;;2.63;1.49;;;;;;;19.95;41.35;100207.48;;;;-50
2019/05/16 13:31:45;;;;;;;2.61;1.40;;;;;;;19.95;41.41;100201.45;;;;-52
2019/05/16 13:34:44;;;;;;;2.80;1.49;;;;;;;19.94;41.29;100193.24;;;;-54
2019/05/16 13:37:44;;;;;;;3.76;1.53;;;;;;;19.95;41.29;100190.66;;;;-54
2019/05/16 13:40:44;;;;;;;3.14;1.51;;;;;;;19.94;41.39;100186.66;;;;-52
2019/05/16 13:43:44;;;;;;;3.02;1.61;;;;;;;19.94;41.24;100178.99;;;;-53
2019/05/16 13:46:44;;;;;;;1.77;1.40;;;;;;;19.94;41.29;100174.30;;;;-54
2019/05/16 13:49:44;;;;;;;2.39;1.51;;;;;;;19.93;41.23;100173.16;;;;-53
2019/05/16 13:52:44;;;;;;;1.93;1.33;;;;;;;19.92;41.13;100165.70;;;;-54
2019/05/16 13:55:45;;;;;;;3.15;1.59;;;;;;;19.89;41.17;100158.48;;;;-54
2019/05/16 13:58:44;;;;;;;1.83;1.50;;;;;;;19.87;41.15;100149.63;;;;-54
2019/05/16 14:01:44;;;;;;;3.25;1.51;;;;;;;19.86;41.14;100153.11;;;;-53
2019/05/16 14:04:44;;;;;;;2.67;1.47;;;;;;;19.84;41.06;100152.80;;;;-53
2019/05/16 14:07:44;;;;;;;1.74;1.56;;;;;;;19.82;41.02;100147.87;;;;-54
2019/05/16 14:10:44;;;;;;;1.60;1.39;;;;;;;19.82;41.02;100149.11;;;;-54
2019/05/16 14:13:44;;;;;;;2.95;1.56;;;;;;;19.81;40.92;100144.64;;;;-54
2019/05/16 14:16:45;;;;;;;1.89;1.39;;;;;;;19.79;40.96;100139.71;;;;-54
2019/05/16 14:19:44;;;;;;;1.65;1.30;;;;;;;19.79;40.99;100131.73;;;;-54
2019/05/16 14:22:44;;;;;;;1.55;1.43;;;;;;;19.79;40.99;100129.05;;;;-54
2019/05/16 14:25:44;;;;;;;2.95;1.55;;;;;;;19.76;40.96;100125.42;;;;-53
2019/05/16 14:28:44;;;;;;;2.15;1.39;;;;;;;19.76;41.01;100118.72;;;;-54
2019/05/16 14:31:44;;;;;;;1.96;1.41;;;;;;;19.74;40.96;100124.77;;;;-53
2019/05/16 14:34:44;;;;;;;1.84;1.46;;;;;;;19.73;40.95;100114.69;;;;-54
2019/05/16 14:37:45;;;;;;;1.95;1.34;;;;;;;19.73;40.88;100108.66;;;;-54
2019/05/16 14:40:44;;;;;;;1.62;1.20;;;;;;;19.71;40.82;100101.37;;;;-54
2019/05/16 14:43:44;;;;;;;1.55;1.45;;;;;;;19.70;40.84;100100.96;;;;-53
2019/05/16 14:46:44;;;;;;;2.34;1.40;;;;;;;19.70;40.82;100097.78;;;;-54
2019/05/16 14:49:44;;;;;;;1.59;1.37;;;;;;;19.69;40.87;100096.44;;;;-54
2019/05/16 14:52:44;;;;;;;1.40;1.30;;;;;;;19.68;40.83;100093.98;;;;-54
2019/05/16 14:55:44;;;;;;;1.52;1.36;;;;;;;19.67;40.76;100090.94;;;;-54
2019/05/16 14:58:44;;;;;;;4.95;1.44;;;;;;;19.67;40.98;100083.56;;;;-52
2019/05/16 15:01:44;;;;;;;2.51;1.50;;;;;;;19.69;41.00;100074.55;;;;-51
2019/05/16 15:04:44;;;;;;;1.52;1.40;;;;;;;19.71;40.89;100070.95;;;;-56
2019/05/16 15:07:44;;;;;;;3.73;1.37;;;;;;;19.71;41.15;100065.95;;;;-57
2019/05/16 15:10:44;;;;;;;4.78;1.50;;;;;;;19.75;42.00;100069.69;;;;-58
2019/05/16 15:13:44;;;;;;;3.87;1.62;;;;;;;19.76;41.59;100067.28;;;;-57
2019/05/16 15:16:44;;;;;;;5.06;1.54;;;;;;;19.76;41.67;100062.35;;;;-58
2019/05/16 15:19:44;;;;;;;4.18;1.48;;;;;;;19.77;41.69;100066.75;;;;-54
2019/05/16 15:22:45;;;;;;;5.59;1.59;;;;;;;19.78;41.72;100060.31;;;;-57
2019/05/16 15:25:45;;;;;;;3.36;1.50;;;;;;;19.80;41.81;100061.73;;;;-52
2019/05/16 15:28:44;;;;;;;6.52;1.58;;;;;;;19.82;41.74;100061.73;;;;-59
2019/05/16 15:31:44;;;;;;;4.33;1.60;;;;;;;19.83;41.79;100056.48;;;;-58
2019/05/16 15:34:44;;;;;;;6.57;1.63;;;;;;;19.83;42.15;100056.81;;;;-56
2019/05/16 15:37:44;;;;;;;4.00;1.50;;;;;;;19.83;42.05;100052.73;;;;-56
2019/05/16 15:40:44;;;;;;;3.23;1.40;;;;;;;19.84;42.09;100059.59;;;;-58
2019/05/16 15:43:44;;;;;;;3.84;1.50;;;;;;;19.85;42.18;100058.06;;;;-56
2019/05/16 15:46:45;;;;;;;7.61;1.65;;;;;;;19.86;42.12;100056.92;;;;-57
2019/05/16 15:49:44;;;;;;;4.36;1.50;;;;;;;19.86;42.17;100051.63;;;;-57
2019/05/16 16:00:16;;;;;;;3.35;1.49;;;;;;;20.18;41.80;100036.70;;;;-40
2019/05/16 16:03:15;;;;;;;2.47;1.49;;;;;;;20.22;41.70;100034.73;;;;-39
2019/05/16 16:06:16;;;;;;;1.81;1.45;;;;;;;20.24;41.60;100030.01;;;;-40
2019/05/16 16:09:16;;;;;;;2.83;1.37;;;;;;;20.25;41.60;100031.55;;;;-39
2019/05/16 16:12:16;;;;;;;4.39;1.58;;;;;;;20.26;41.52;100026.42;;;;-41
2019/05/16 16:15:16;;;;;;;1.87;1.55;;;;;;;20.27;41.56;100026.25;;;;-41
2019/05/16 16:18:16;;;;;;;3.58;1.33;;;;;;;20.30;41.47;100026.02;;;;-41
2019/05/16 16:21:16;;;;;;;1.87;1.45;;;;;;;20.31;41.53;100024.38;;;;-42
2019/05/16 16:28:22;;;;;;;2.12;1.40;;;;;;;20.35;41.35;100012.44;;;;-40
2019/05/16 16:33:42;;;;;;;4.97;1.58;;;;;;;20.13;41.40;100007.53;;;;-56
2019/05/16 16:36:41;;;;;;;3.46;1.56;;;;;;;20.05;41.52;100004.67;;;;-57
2019/05/16 16:39:41;;;;;;;4.20;1.68;;;;;;;20.00;41.52;100004.62;;;;-56
2019/05/16 16:42:41;;;;;;;2.55;1.51;;;;;;;19.96;41.53;100006.16;;;;-56
2019/05/16 16:45:41;;;;;;;3.31;1.67;;;;;;;19.93;41.58;100001.54;;;;-56
2019/05/16 16:48:42;;;;;;;2.51;1.47;;;;;;;19.90;41.55;100004.05;;;;-56
2019/05/16 16:51:42;;;;;;;3.66;1.41;;;;;;;19.88;41.60;100004.54;;;;-56
2019/05/16 16:54:41;;;;;;;2.05;1.49;;;;;;;19.85;41.63;100008.80;;;;-56
2019/05/16 16:57:41;;;;;;;1.63;1.44;;;;;;;19.84;41.58;100009.16;;;;-55